createdAt,value
2024-01-04T00:02:25.259Z,10.02
2024-01-04T00:04:51.956Z,9.75
2024-01-04T00:07:18.590Z,8.90
2024-01-04T00:09:45.259Z,8.50
2024-01-04T00:12:11.842Z,8.43
2024-01-04T00:14:38.495Z,8.20
2024-01-04T00:17:05.148Z,8.93
2024-01-04T00:19:31.852Z,7.22
2024-01-04T00:21:58.580Z,6.93
2024-01-04T00:24:25.174Z,7.13
2024-01-04T00:26:51.913Z,7.90
2024-01-04T00:29:18.519Z,6.65
2024-01-04T00:31:45.060Z,6.97
2024-01-04T00:34:11.806Z,7.53
2024-01-04T00:36:38.471Z,7.82
2024-01-04T00:39:05.243Z,7.78
2024-01-04T00:41:31.950Z,7.53
2024-01-04T00:43:58.577Z,6.93
2024-01-04T00:46:25.314Z,7.32
2024-01-04T00:48:52.214Z,6.78
2024-01-04T00:51:19.130Z,6.90
2024-01-04T00:53:45.804Z,8.15
2024-01-04T00:56:12.429Z,8.02
2024-01-04T00:58:38.958Z,7.45
2024-01-04T01:01:06.282Z,8.63
2024-01-04T01:03:33.103Z,9.90
2024-01-04T01:06:00.636Z,8.45
2024-01-04T01:08:27.555Z,8.75
2024-01-04T01:10:54.190Z,7.95
2024-01-04T01:13:23.820Z,7.30
2024-01-04T01:15:50.518Z,7.32
2024-01-04T01:18:17.200Z,7.30
2024-01-04T01:20:43.838Z,7.00
2024-01-04T01:23:10.932Z,6.57
2024-01-04T01:25:37.554Z,6.35
2024-01-04T01:28:04.883Z,6.13
2024-01-04T01:30:31.558Z,6.90
2024-01-04T01:32:58.446Z,5.07
2024-01-04T01:35:25.163Z,5.93
2024-01-04T01:37:51.690Z,5.85
2024-01-04T01:40:18.227Z,6.55
2024-01-04T01:42:48.791Z,5.53
2024-01-04T01:45:16.219Z,6.32
2024-01-04T01:47:43.062Z,6.20
2024-01-04T01:50:09.902Z,5.95
2024-01-04T01:52:37.474Z,6.70
2024-01-04T01:55:04.360Z,6.70
2024-01-04T01:57:33.811Z,7.50
2024-01-04T02:00:01.187Z,7.65
2024-01-04T02:02:28.096Z,7.00
2024-01-04T02:04:54.669Z,7.65
2024-01-04T02:07:21.789Z,7.05
2024-01-04T02:09:49.085Z,7.20
2024-01-04T02:12:15.819Z,7.90
2024-01-04T02:14:42.501Z,6.78
2024-01-04T02:17:09.233Z,6.80
2024-01-04T02:19:36.011Z,7.53
2024-01-04T02:22:03.739Z,6.30
2024-01-04T02:24:30.334Z,7.03
2024-01-04T02:26:57.008Z,6.53
2024-01-04T02:29:23.567Z,6.75
2024-01-04T02:31:50.877Z,6.80
2024-01-04T02:34:17.822Z,6.07
2024-01-04T02:36:44.433Z,5.78
2024-01-04T02:39:11.668Z,6.70
2024-01-04T02:41:39.176Z,5.88
2024-01-04T02:44:05.898Z,6.57
2024-01-04T02:46:32.500Z,6.13
2024-01-04T02:48:59.175Z,4.75
2024-01-04T02:51:25.778Z,5.40
2024-01-04T02:53:52.451Z,4.95
2024-01-04T02:56:19.522Z,4.70
2024-01-04T02:58:48.791Z,4.63
2024-01-04T03:01:22.017Z,5.13
2024-01-04T03:03:56.825Z,4.10
2024-01-04T03:06:23.869Z,4.32
2024-01-04T03:08:50.542Z,3.55
2024-01-04T03:11:17.398Z,3.80
2024-01-04T03:13:44.306Z,3.13
2024-01-04T03:16:11.361Z,3.13
2024-01-04T03:18:38.092Z,3.20
2024-01-04T03:21:05.940Z,3.00
2024-01-04T03:23:32.568Z,2.92
2024-01-04T03:25:59.572Z,2.70
2024-01-04T03:28:26.086Z,2.97
2024-01-04T03:30:52.597Z,3.20
2024-01-04T03:33:19.611Z,3.45
2024-01-04T03:35:46.402Z,3.63
2024-01-04T03:38:13.053Z,3.28
2024-01-04T03:40:39.586Z,4.22
2024-01-04T03:43:06.072Z,2.95
2024-01-04T03:45:33.223Z,2.97
2024-01-04T03:47:59.990Z,3.15
2024-01-04T03:50:26.650Z,2.70
2024-01-04T03:52:53.797Z,3.10
2024-01-04T03:55:20.427Z,2.65
2024-01-04T03:57:47.004Z,3.20
2024-01-04T04:00:14.045Z,2.53
2024-01-04T04:02:40.814Z,3.22
2024-01-04T04:05:08.075Z,2.95
2024-01-04T04:07:35.564Z,2.80
2024-01-04T04:10:03.578Z,2.88
2024-01-04T04:12:30.268Z,3.50
2024-01-04T04:14:56.922Z,2.67
2024-01-04T04:17:26.019Z,2.38
2024-01-04T04:19:53.031Z,3.03
2024-01-04T04:22:19.700Z,2.30
2024-01-04T04:24:46.484Z,2.45
2024-01-04T04:27:13.270Z,2.17
2024-01-04T04:29:42.952Z,2.55
2024-01-04T04:32:09.650Z,2.83
2024-01-04T04:34:36.531Z,2.35
2024-01-04T04:37:04.272Z,2.38
2024-01-04T04:39:30.983Z,2.00
2024-01-04T04:41:58.489Z,2.20
2024-01-04T04:44:25.024Z,2.40
2024-01-04T04:46:51.831Z,2.47
2024-01-04T04:49:18.643Z,2.40
2024-01-04T04:51:49.857Z,2.53
2024-01-04T04:54:19.784Z,2.67
2024-01-04T04:56:46.403Z,1.85
2024-01-04T04:59:13.465Z,2.92
2024-01-04T05:01:44.832Z,2.70
2024-01-04T05:04:11.813Z,2.70
2024-01-04T05:06:38.583Z,3.33
2024-01-04T05:09:05.340Z,2.67
2024-01-04T05:11:31.850Z,2.83
2024-01-04T05:13:58.455Z,3.22
2024-01-04T05:16:25.171Z,3.20
2024-01-04T05:18:52.138Z,3.33
2024-01-04T05:21:18.864Z,3.17
2024-01-04T05:23:45.545Z,3.70
2024-01-04T05:26:23.988Z,3.38
2024-01-04T05:28:50.584Z,3.78
2024-01-04T05:31:20.191Z,3.88
2024-01-04T05:33:47.709Z,4.53
2024-01-04T05:36:14.873Z,3.80
2024-01-04T05:38:41.699Z,4.07
2024-01-04T05:41:08.373Z,3.58
2024-01-04T05:43:35.244Z,3.50
2024-01-04T05:46:07.753Z,3.33
2024-01-04T05:48:36.161Z,3.95
2024-01-04T05:51:02.880Z,4.03
2024-01-04T05:53:30.093Z,4.38
2024-01-04T05:55:56.745Z,4.10
2024-01-04T05:58:23.283Z,4.70
2024-01-04T06:00:49.884Z,4.70
2024-01-04T06:03:17.802Z,4.85
2024-01-04T06:05:44.593Z,4.47
2024-01-04T06:08:11.263Z,5.22
2024-01-04T06:10:37.898Z,4.82
2024-01-04T06:13:04.537Z,5.43
2024-01-04T06:15:31.199Z,4.25
2024-01-04T06:17:58.029Z,4.65
2024-01-04T06:20:24.925Z,5.45
2024-01-04T06:22:52.444Z,5.47
2024-01-04T06:25:20.132Z,4.95
2024-01-04T06:27:47.752Z,5.07
2024-01-04T06:30:14.998Z,3.90
2024-01-04T06:32:41.686Z,4.07
2024-01-04T06:35:08.585Z,4.20
2024-01-04T06:37:35.353Z,4.40
2024-01-04T06:40:02.057Z,7.68
2024-01-04T06:42:28.669Z,7.97
2024-01-04T06:44:55.462Z,5.43
2024-01-04T06:47:22.079Z,5.07
2024-01-04T06:49:48.755Z,5.63
2024-01-04T06:52:15.540Z,4.93
2024-01-04T06:54:42.044Z,5.13
2024-01-04T06:57:09.067Z,5.90
2024-01-04T06:59:36.197Z,5.40
2024-01-04T07:02:06.314Z,5.38
2024-01-04T07:04:33.294Z,4.63
2024-01-04T07:07:00.000Z,6.20
2024-01-04T07:09:26.730Z,6.07
2024-01-04T07:11:53.617Z,5.47
2024-01-04T07:14:20.222Z,5.03
2024-01-04T07:16:47.644Z,5.22
2024-01-04T07:19:14.797Z,5.47
2024-01-04T07:21:42.581Z,4.80
2024-01-04T07:24:09.256Z,5.63
2024-01-04T07:26:36.105Z,6.68
2024-01-04T07:29:02.821Z,8.15
2024-01-04T07:31:29.350Z,6.63
2024-01-04T07:33:56.072Z,7.53
2024-01-04T07:36:22.802Z,6.20
2024-01-04T07:38:49.609Z,5.70
2024-01-04T07:41:16.612Z,5.07
2024-01-04T07:43:43.200Z,5.45
2024-01-04T07:46:09.883Z,4.32
2024-01-04T07:48:36.658Z,3.35
2024-01-04T07:51:03.415Z,3.30
2024-01-04T07:53:30.028Z,3.75
2024-01-04T07:55:56.633Z,3.25
2024-01-04T07:58:23.246Z,3.55
2024-01-04T08:00:50.295Z,3.40
2024-01-04T08:03:17.068Z,3.50
2024-01-04T08:05:44.376Z,2.88
2024-01-04T08:08:11.133Z,2.67
2024-01-04T08:10:37.784Z,2.75
2024-01-04T08:13:04.567Z,3.45
2024-01-04T08:15:34.834Z,3.53
2024-01-04T08:18:07.419Z,3.88
2024-01-04T08:20:34.760Z,4.43
2024-01-04T08:23:01.506Z,3.92
2024-01-04T08:25:30.960Z,4.00
2024-01-04T08:27:57.570Z,4.20
2024-01-04T08:30:24.766Z,4.20
2024-01-04T08:32:51.437Z,3.95
2024-01-04T08:35:18.693Z,3.35
2024-01-04T08:37:48.362Z,3.72
2024-01-04T08:40:15.049Z,3.40
2024-01-04T08:42:41.846Z,3.55
2024-01-04T08:45:09.607Z,3.38
2024-01-04T08:47:36.977Z,3.70
2024-01-04T08:50:04.160Z,2.95
2024-01-04T08:52:31.292Z,3.13
2024-01-04T08:54:57.908Z,3.47
2024-01-04T08:57:24.690Z,3.50
2024-01-04T08:59:51.669Z,3.10
2024-01-04T09:02:18.528Z,3.97
2024-01-04T09:04:45.362Z,4.53
2024-01-04T09:07:13.690Z,4.65
2024-01-04T09:09:41.709Z,4.40
2024-01-04T09:12:08.478Z,4.75
2024-01-04T09:14:35.223Z,4.80
2024-01-04T09:17:01.791Z,4.10
2024-01-04T09:19:29.696Z,4.28
2024-01-04T09:21:56.561Z,3.38
2024-01-04T09:24:24.612Z,2.92
2024-01-04T09:26:51.693Z,3.35
2024-01-04T09:29:19.425Z,2.67
2024-01-04T09:31:45.974Z,3.38
2024-01-04T09:34:12.754Z,3.53
2024-01-04T09:36:39.460Z,2.80
2024-01-04T09:39:06.197Z,2.10
2024-01-04T09:41:33.562Z,2.75
2024-01-04T09:44:05.385Z,2.40
2024-01-04T09:46:35.748Z,2.67
2024-01-04T09:49:03.106Z,2.30
2024-01-04T09:51:30.615Z,3.00
2024-01-04T09:53:57.218Z,3.95
2024-01-04T09:56:24.056Z,4.63
2024-01-04T09:58:51.266Z,4.18
2024-01-04T10:01:25.431Z,6.13
2024-01-04T10:03:54.013Z,4.30
2024-01-04T10:06:26.451Z,5.53
2024-01-04T10:08:57.045Z,5.03
2024-01-04T10:11:26.286Z,4.78
2024-01-04T10:13:53.316Z,5.20
2024-01-04T10:16:19.922Z,5.25
2024-01-04T10:18:46.863Z,6.43
2024-01-04T10:21:13.684Z,6.35
2024-01-04T10:23:40.525Z,6.47
2024-01-04T10:26:10.943Z,6.10
2024-01-04T10:28:39.586Z,6.00
2024-01-04T10:31:07.994Z,9.13
2024-01-04T10:33:37.354Z,11.23
2024-01-04T10:36:11.548Z,11.57
2024-01-04T10:38:38.923Z,11.05
2024-01-04T10:41:05.578Z,14.60
2024-01-04T10:43:33.310Z,14.25
2024-01-04T10:46:03.865Z,13.75
2024-01-04T10:48:31.006Z,12.82
2024-01-04T10:50:58.435Z,9.88
2024-01-04T10:53:26.716Z,7.97
2024-01-04T10:55:53.824Z,7.70
2024-01-04T10:58:22.068Z,7.72
2024-01-04T11:00:48.761Z,9.55
2024-01-04T11:03:15.775Z,6.50
2024-01-04T11:05:42.955Z,6.47
2024-01-04T11:08:10.823Z,4.80
2024-01-04T11:10:37.571Z,5.20
2024-01-04T11:13:04.680Z,4.95
2024-01-04T11:15:31.348Z,6.00
2024-01-04T11:18:07.310Z,5.07
2024-01-04T11:20:57.302Z,4.78
2024-01-04T11:23:42.676Z,5.07
2024-01-04T11:26:16.102Z,4.55
2024-01-04T11:28:43.069Z,4.75
2024-01-04T11:31:11.169Z,5.18
2024-01-04T11:33:42.632Z,5.53
2024-01-04T11:38:36.563Z,6.18
2024-01-04T11:41:03.566Z,6.13
2024-01-04T11:43:39.747Z,5.80
2024-01-04T11:46:23.707Z,6.65
2024-01-04T11:48:54.943Z,6.50
2024-01-04T11:51:42.124Z,5.47
2024-01-04T11:54:12.473Z,5.22
2024-01-04T11:56:39.225Z,7.38
2024-01-04T11:59:08.042Z,5.22
2024-01-04T12:01:36.648Z,4.82
2024-01-04T12:09:10.571Z,5.50
2024-01-04T12:11:46.690Z,5.38
2024-01-04T12:14:13.758Z,5.03
2024-01-04T12:16:41.095Z,5.28
2024-01-04T12:19:08.243Z,6.40
2024-01-04T12:21:34.885Z,6.60
2024-01-04T12:24:01.686Z,4.93
2024-01-04T12:26:29.673Z,4.45
2024-01-04T12:28:57.241Z,4.75
2024-01-04T12:31:25.665Z,3.80
2024-01-04T12:33:56.376Z,4.38
2024-01-04T12:36:23.863Z,3.90
2024-01-04T12:38:54.536Z,3.90
2024-01-04T12:48:50.166Z,3.40
2024-01-04T12:51:17.668Z,3.05
2024-01-04T12:53:47.345Z,3.50
2024-01-04T12:56:15.482Z,4.45
2024-01-04T12:58:45.859Z,3.35
2024-01-04T13:01:12.543Z,8.52
2024-01-04T13:03:39.279Z,5.57
2024-01-04T13:06:06.547Z,6.53
2024-01-04T13:15:58.552Z,5.50
2024-01-04T13:18:25.280Z,4.80
2024-01-04T13:20:52.133Z,4.78
2024-01-04T13:23:19.105Z,4.45
2024-01-04T13:25:45.635Z,4.13
2024-01-04T13:28:12.169Z,4.28
2024-01-04T13:30:38.768Z,4.65
2024-01-04T13:33:05.632Z,5.22
2024-01-04T13:35:32.252Z,4.70
2024-01-04T13:37:59.474Z,4.80
2024-01-04T13:40:26.134Z,4.25
2024-01-04T13:42:52.735Z,4.97
2024-01-04T13:45:19.964Z,4.65
2024-01-04T13:47:48.413Z,4.95
2024-01-04T13:55:09.991Z,4.38
2024-01-04T13:57:36.757Z,5.15
2024-01-04T14:00:04.748Z,5.72
2024-01-04T14:02:31.395Z,5.20
2024-01-04T14:04:57.976Z,6.25
2024-01-04T14:07:24.509Z,5.80
2024-01-04T14:09:51.071Z,5.80
2024-01-04T14:12:17.763Z,5.60
2024-01-04T14:14:44.413Z,7.30
2024-01-04T14:17:11.134Z,6.15
2024-01-04T14:19:39.323Z,6.13
2024-01-04T14:22:06.057Z,6.93
2024-01-04T14:24:33.807Z,6.60
2024-01-04T14:27:00.600Z,7.97
2024-01-04T14:29:27.268Z,7.25
2024-01-04T14:31:53.860Z,7.07
2024-01-04T14:34:20.615Z,6.22
2024-01-04T14:36:47.450Z,6.47
2024-01-04T14:39:24.150Z,15.30
2024-01-04T14:41:51.598Z,12.35
2024-01-04T14:46:45.267Z,8.70
2024-01-04T14:49:12.551Z,8.98
2024-01-04T14:51:39.320Z,13.68
2024-01-04T14:56:38.126Z,10.68
2024-01-04T14:59:07.957Z,11.70
2024-01-04T15:01:34.652Z,11.93
2024-01-04T15:04:02.237Z,14.90
2024-01-04T15:06:29.228Z,13.30
2024-01-04T15:08:56.509Z,12.57
2024-01-04T15:11:24.129Z,13.40
2024-01-04T15:13:51.231Z,21.60
2024-01-04T15:16:17.990Z,33.25
2024-01-04T15:18:44.735Z,20.13
2024-01-04T15:21:11.514Z,25.55
2024-01-04T15:23:38.429Z,19.15
2024-01-04T15:26:05.077Z,19.95
2024-01-04T15:28:31.666Z,17.65
2024-01-04T15:30:59.169Z,15.35
2024-01-04T15:33:26.140Z,17.13
2024-01-04T15:35:52.882Z,15.90
2024-01-04T15:38:19.571Z,22.65
2024-01-04T15:40:47.481Z,21.50
2024-01-04T15:43:14.026Z,26.30
2024-01-04T15:45:40.632Z,22.73
2024-01-04T15:48:07.458Z,24.05
2024-01-04T15:50:34.484Z,22.00
2024-01-04T15:53:01.129Z,20.35
2024-01-04T15:55:27.692Z,22.48
2024-01-04T15:57:54.283Z,22.05
2024-01-04T16:00:25.019Z,21.63
2024-01-04T16:02:52.062Z,24.20
2024-01-04T16:05:19.215Z,20.33
2024-01-04T16:07:46.538Z,20.83
2024-01-04T16:10:15.223Z,20.70
2024-01-04T16:12:42.597Z,20.25
2024-01-04T16:15:09.751Z,20.50
2024-01-04T16:17:36.505Z,19.45
2024-01-04T16:20:04.147Z,21.30
2024-01-04T16:22:31.234Z,20.67
2024-01-04T16:24:57.821Z,23.42
2024-01-04T16:27:24.972Z,24.33
2024-01-04T16:29:51.685Z,24.30
2024-01-04T16:32:18.319Z,27.83
2024-01-04T16:34:44.966Z,26.58
2024-01-04T16:37:11.660Z,31.42
2024-01-04T16:39:38.260Z,31.73
2024-01-04T16:42:05.320Z,29.13
2024-01-04T16:44:32.558Z,33.95
2024-01-04T16:47:02.568Z,26.98
2024-01-04T16:49:29.210Z,23.58
2024-01-04T16:51:56.014Z,23.30
2024-01-04T16:54:22.728Z,22.00
2024-01-04T16:56:49.364Z,21.23
2024-01-04T16:59:16.829Z,22.30
2024-01-04T17:01:43.742Z,22.42
2024-01-04T17:04:10.489Z,24.00
2024-01-04T17:06:37.286Z,23.00
2024-01-04T17:09:04.045Z,22.92
2024-01-04T17:11:30.562Z,23.98
2024-01-04T17:13:57.263Z,23.35
2024-01-04T17:16:23.867Z,21.65
2024-01-04T17:18:50.866Z,26.15
2024-01-04T17:21:17.787Z,23.95
2024-01-04T17:23:44.507Z,24.02
2024-01-04T17:26:12.046Z,20.70
2024-01-04T17:28:40.631Z,21.60
2024-01-04T17:31:07.290Z,34.50
2024-01-04T17:33:34.670Z,76.38
2024-01-04T17:36:16.233Z,65.68
2024-01-04T17:38:49.038Z,41.13
2024-01-04T17:41:15.892Z,24.35
2024-01-04T17:43:42.547Z,22.63
2024-01-04T17:46:09.176Z,24.17
2024-01-04T17:48:35.924Z,22.00
2024-01-04T17:51:05.213Z,19.80
2024-01-04T17:53:32.022Z,22.13
2024-01-04T17:55:59.236Z,21.83
2024-01-04T17:58:25.944Z,21.25
2024-01-04T18:00:53.867Z,20.70
2024-01-04T18:03:20.772Z,20.23
2024-01-04T18:05:47.893Z,20.25
2024-01-04T18:08:15.581Z,19.63
2024-01-04T18:10:42.198Z,20.83
2024-01-04T18:13:08.700Z,20.90
2024-01-04T18:15:35.379Z,20.85
2024-01-04T18:18:02.298Z,20.20
2024-01-04T18:20:29.033Z,20.25
2024-01-04T18:22:55.876Z,23.58
2024-01-04T18:25:22.686Z,21.08
2024-01-04T18:27:49.483Z,24.83
2024-01-04T18:30:16.286Z,19.98
2024-01-04T18:32:42.939Z,19.88
2024-01-04T18:35:09.863Z,20.65
2024-01-04T18:37:36.442Z,20.63
2024-01-04T18:40:03.042Z,24.48
2024-01-04T18:42:30.404Z,29.50
2024-01-04T18:44:57.380Z,19.50
2024-01-04T18:47:24.219Z,19.83
2024-01-04T18:49:51.192Z,19.05
2024-01-04T18:52:17.950Z,18.65
2024-01-04T18:54:44.802Z,27.00
2024-01-04T18:57:11.711Z,18.95
2024-01-04T18:59:38.424Z,20.27
2024-01-04T19:02:05.419Z,17.77
2024-01-04T19:04:32.462Z,23.20
2024-01-04T19:06:59.221Z,18.92
2024-01-04T19:09:27.774Z,17.63
2024-01-04T19:11:54.788Z,17.20
2024-01-04T19:14:21.418Z,16.65
2024-01-04T19:16:48.913Z,16.98
2024-01-04T19:19:15.880Z,16.70
2024-01-04T19:21:42.901Z,16.23
2024-01-04T19:24:09.670Z,17.00
2024-01-04T19:26:36.357Z,15.75
2024-01-04T19:29:02.973Z,17.10
2024-01-04T19:31:29.643Z,16.05
2024-01-04T19:33:56.951Z,14.95
2024-01-04T19:36:23.848Z,14.55
2024-01-04T19:38:50.501Z,15.50
2024-01-04T19:41:17.267Z,14.88
2024-01-04T19:43:43.898Z,15.25
2024-01-04T19:46:11.493Z,14.75
2024-01-04T19:48:38.952Z,15.18
2024-01-04T19:51:08.956Z,14.48
2024-01-04T19:53:35.643Z,13.05
2024-01-04T19:56:03.558Z,13.98
2024-01-04T19:58:32.317Z,13.52
2024-01-04T20:00:59.461Z,13.50
2024-01-04T20:03:26.211Z,17.55
2024-01-04T20:05:52.917Z,11.18
2024-01-04T20:08:19.542Z,12.05
2024-01-04T20:10:46.183Z,11.82
2024-01-04T20:13:12.706Z,14.07
2024-01-04T20:15:39.437Z,14.73
2024-01-04T20:18:06.594Z,15.52
2024-01-04T20:20:33.542Z,18.25
2024-01-04T20:23:00.092Z,23.15
2024-01-04T20:25:26.668Z,20.27
2024-01-04T20:27:53.487Z,19.63
2024-01-04T20:30:20.154Z,19.23
2024-01-04T20:32:47.312Z,18.10
2024-01-04T20:35:14.927Z,18.58
2024-01-04T20:37:41.597Z,18.67
2024-01-04T20:40:09.126Z,19.55
2024-01-04T20:42:36.946Z,20.35
2024-01-04T20:45:04.099Z,20.38
2024-01-04T20:47:31.150Z,20.42
2024-01-04T20:49:58.403Z,17.58
2024-01-04T20:52:25.080Z,18.20
2024-01-04T20:54:51.720Z,19.05
2024-01-04T20:57:18.251Z,23.42
2024-01-04T20:59:44.827Z,24.02
2024-01-04T21:02:11.477Z,24.35
2024-01-04T21:04:38.101Z,43.65
2024-01-04T21:07:04.947Z,32.55
2024-01-04T21:09:31.759Z,31.60
2024-01-04T21:11:59.012Z,30.02
2024-01-04T21:14:26.447Z,28.38
2024-01-04T21:16:53.051Z,26.90
2024-01-04T21:19:19.792Z,27.27
2024-01-04T21:21:46.482Z,25.40
2024-01-04T21:24:13.158Z,22.33
2024-01-04T21:26:40.261Z,21.48
2024-01-04T21:29:07.248Z,22.48
2024-01-04T21:31:33.864Z,22.15
2024-01-04T21:34:00.644Z,24.83
2024-01-04T21:36:28.460Z,24.38
2024-01-04T21:38:56.039Z,21.25
2024-01-04T21:41:23.119Z,18.02
2024-01-04T21:43:49.769Z,22.30
2024-01-04T21:46:16.870Z,21.65
2024-01-04T21:48:43.730Z,21.52
2024-01-04T21:51:16.914Z,20.23
2024-01-04T21:53:48.701Z,18.52
2024-01-04T21:58:41.813Z,17.15
2024-01-04T22:01:09.378Z,16.90
2024-01-04T22:03:36.073Z,18.23
2024-01-04T22:06:02.782Z,16.92
2024-01-04T22:08:29.465Z,17.85
2024-01-04T22:10:56.051Z,16.48
2024-01-04T22:13:22.661Z,16.05
2024-01-04T22:15:49.388Z,14.00
2024-01-04T22:18:16.060Z,12.95
2024-01-04T22:20:42.765Z,13.10
2024-01-04T22:23:09.340Z,13.32
2024-01-04T22:25:35.841Z,14.40
2024-01-04T22:28:02.437Z,13.65
2024-01-04T22:30:29.142Z,15.25
2024-01-04T22:32:55.897Z,15.15
2024-01-04T22:35:22.548Z,13.80
2024-01-04T22:37:49.587Z,14.52
2024-01-04T22:40:16.986Z,13.93
2024-01-04T22:42:43.585Z,15.30
2024-01-04T22:45:10.400Z,14.68
2024-01-04T22:47:37.186Z,13.13
2024-01-04T22:50:05.622Z,13.38
2024-01-04T22:52:32.276Z,13.80
2024-01-04T22:55:00.928Z,13.38
2024-01-04T22:57:27.689Z,13.30
2024-01-04T22:59:57.228Z,13.18
2024-01-04T23:02:24.657Z,11.85
2024-01-04T23:04:52.463Z,12.60
2024-01-04T23:07:19.502Z,13.35
2024-01-04T23:09:46.121Z,14.07
2024-01-04T23:12:12.723Z,12.65
2024-01-04T23:14:39.363Z,13.05
2024-01-04T23:17:06.014Z,12.68
2024-01-04T23:19:32.696Z,12.18
2024-01-04T23:21:59.272Z,11.70
2024-01-04T23:24:25.810Z,12.63
2024-01-04T23:26:52.402Z,11.77
2024-01-04T23:29:19.387Z,11.82
2024-01-04T23:31:46.381Z,12.52
2024-01-04T23:34:13.240Z,10.90
2024-01-04T23:36:40.334Z,11.20
2024-01-04T23:39:07.397Z,11.48
2024-01-04T23:41:34.300Z,10.90
2024-01-04T23:44:01.072Z,9.98
2024-01-04T23:46:28.231Z,10.10
2024-01-04T23:48:54.910Z,8.80
2024-01-04T23:51:21.630Z,9.13
2024-01-04T23:53:48.269Z,9.02
2024-01-04T23:56:14.873Z,9.25
2024-01-04T23:58:41.438Z,9.95
